Time;durP1;ratioP1;P1;durP2;ratioP2;P2;SDS_P1;SDS_P2;PMS_P1;PMS_P2;Temp;Humidity;BMP_temperature;BMP_pressure;BME280_temperature;BME280_humidity;BME280_pressure;Samples;Min_cycle;Max_cycle;Signal;HPM_P1;HPM_P2
2023/01/09 07:05:53;;;;;;;1.17;0.68;;;16.30;63.10;;;15.39;100.00;99092.13;529649;27;20386;-76
2023/01/09 07:06:09;;;;;;;2.95;0.90;;;16.40;63.10;;;15.43;100.00;99098.78;528357;28;984;-74
2023/01/09 07:06:26;;;;;;;2.83;0.90;;;16.30;63.30;;;15.43;100.00;99096.97;528420;28;1156;-75
2023/01/09 07:06:42;;;;;;;2.30;1.08;;;16.40;63.40;;;15.41;100.00;99098.94;528262;28;1084;-76
2023/01/09 07:06:58;;;;;;;2.35;1.10;;;16.30;63.50;;;15.42;100.00;99105.84;527291;28;2962;-76
2023/01/09 07:07:15;;;;;;;4.82;1.00;;;16.30;63.60;;;15.43;100.00;99098.78;527203;28;1014;-76
2023/01/09 07:07:32;;;;;;;5.63;1.00;;;16.40;63.70;;;15.38;100.00;99099.19;528021;28;1075;-76
2023/01/09 07:07:48;;;;;;;3.70;1.00;;;16.40;63.70;;;15.36;100.00;99095.88;528182;28;1191;-75
2023/01/09 07:08:04;;;;;;;2.15;0.90;;;16.40;63.60;;;15.35;100.00;99088.97;527674;28;1831;-77
2023/01/09 07:08:21;;;;;;;1.42;0.82;;;16.40;63.50;;;15.31;100.00;99088.41;526049;28;2596;-76
2023/01/09 07:08:38;;;;;;;2.20;0.93;;;16.40;63.50;;;15.30;100.00;99093.81;527756;28;2327;-75
2023/01/09 07:08:54;;;;;;;3.38;1.10;;;16.50;63.50;;;15.30;100.00;99093.81;527607;28;2304;-76
2023/01/09 07:09:12;;;;;;;1.55;1.00;;;16.60;63.40;;;15.29;100.00;99100.00;527554;28;1000;-75
2023/01/09 07:09:28;;;;;;;1.90;0.85;;;16.60;63.40;;;15.29;100.00;99094.75;525630;28;2682;-76
2023/01/09 07:09:44;;;;;;;3.17;0.95;;;16.60;63.20;;;15.28;100.00;99093.94;525804;28;2615;-75
2023/01/09 07:10:00;;;;;;;4.50;1.13;;;16.60;63.10;;;15.28;100.00;99095.72;525790;28;2941;-75
2023/01/09 07:10:17;;;;;;;4.35;1.10;;;16.70;63.00;;;15.27;100.00;99107.22;526893;28;2376;-76
2023/01/09 07:10:34;;;;;;;1.83;1.00;;;16.70;62.80;;;15.27;100.00;99104.59;526248;28;1017;-76
2023/01/09 07:10:50;;;;;;;2.90;1.10;;;16.80;62.70;;;15.27;100.00;99107.22;526105;28;997;-76
2023/01/09 07:11:06;;;;;;;3.60;0.95;;;16.80;62.50;;;15.27;100.00;99101.97;526130;28;1065;-76
2023/01/09 07:11:22;;;;;;;3.83;0.98;;;16.80;62.40;;;15.26;100.00;99103.75;526336;28;1143;-75
2023/01/09 07:11:40;;;;;;;3.03;1.10;;;16.90;62.20;;;15.26;100.00;99097.69;525943;28;1810;-77
2023/01/09 07:11:56;;;;;;;3.03;1.17;;;16.90;62.10;;;15.25;100.00;99098.63;526137;28;980;-75
2023/01/09 07:12:13;;;;;;;2.55;1.15;;;17.00;61.90;;;15.27;100.00;99096.72;526076;28;1870;-76
2023/01/09 07:12:29;;;;;;;2.83;1.02;;;17.00;61.70;;;15.26;100.00;99102.94;526200;28;1029;-75
2023/01/09 07:12:46;;;;;;;3.70;1.10;;;17.00;61.60;;;15.26;100.00;99105.56;526180;28;976;-76
2023/01/09 07:13:03;;;;;;;2.10;1.00;;;17.10;61.50;;;15.26;100.00;99105.56;526175;28;1121;-76
2023/01/09 07:13:19;;;;;;;5.03;1.00;;;17.20;61.30;;;15.25;100.00;99104.72;526147;28;1008;-75
2023/01/09 07:13:37;;;;;;;6.72;1.10;;;17.20;61.20;;;15.25;100.00;99101.25;526114;28;910;-78
2023/01/09 07:13:54;;;;;;;3.20;1.00;;;17.30;61.00;;;15.24;100.00;99103.06;526109;28;926;-74
2023/01/09 07:14:10;;;;;;;3.03;0.82;;;17.30;60.80;;;15.25;100.00;99101.25;526116;28;1067;-76
2023/01/09 07:14:26;;;;;;;3.75;1.02;;;17.40;60.60;;;15.24;100.00;99096.97;527929;28;1259;-76
2023/01/09 07:14:42;;;;;;;2.33;1.08;;;17.40;60.40;;;15.23;100.00;99104.06;528315;28;984;-76
2023/01/09 07:14:58;;;;;;;1.63;0.95;;;17.50;60.20;;;15.25;100.00;99098.63;528205;28;977;-78
2023/01/09 07:15:15;;;;;;;3.65;1.00;;;17.50;60.10;;;15.26;100.00;99100.31;528143;28;1090;-74
2023/01/09 07:15:32;;;;;;;6.22;1.17;;;17.60;60.00;;;15.27;100.00;99104.59;528277;28;1009;-74
2023/01/09 07:15:48;;;;;;;6.82;1.13;;;17.60;59.80;;;15.28;100.00;99106.25;528044;28;1095;-75
2023/01/09 07:16:06;;;;;;;4.80;0.95;;;17.70;59.60;;;15.27;100.00;99099.34;528248;28;1013;-74
2023/01/09 07:16:22;;;;;;;4.65;0.90;;;17.70;59.40;;;15.25;100.00;99104.72;528231;28;977;-72
2023/01/09 07:16:39;;;;;;;2.78;0.88;;;17.80;59.10;;;15.26;100.00;99105.56;528420;28;1168;-75
2023/01/09 07:16:56;;;;;;;4.38;0.80;;;17.90;59.00;;;15.25;100.00;99103.88;528246;28;1420;-74
2023/01/09 07:17:12;;;;;;;3.55;0.93;;;17.90;58.80;;;15.26;100.00;99110.81;528219;28;1441;-74
2023/01/09 07:17:28;;;;;;;2.20;1.00;;;17.90;58.70;;;15.24;100.00;99103.06;528241;28;933;-75
2023/01/09 07:17:44;;;;;;;2.03;1.00;;;18.00;58.50;;;15.24;100.00;99102.22;527939;28;1083;-76
2023/01/09 07:18:02;;;;;;;4.97;1.05;;;18.10;58.40;;;15.25;100.00;99102.09;528078;28;1004;-76
2023/01/09 07:18:18;;;;;;;4.63;1.20;;;18.10;58.10;;;15.25;100.00;99114.41;528199;28;990;-76
2023/01/09 07:18:35;;;;;;;3.55;1.10;;;18.20;58.00;;;15.23;100.00;99101.41;528098;28;958;-77
2023/01/09 07:18:53;;;;;;;4.45;1.20;;;18.20;57.80;;;15.24;100.00;99113.59;528198;28;918;-75
2023/01/09 07:19:10;;;;;;;3.58;1.20;;;18.30;57.60;;;15.24;100.00;99113.59;528244;28;950;-75
2023/01/09 07:19:27;;;;;;;3.72;1.10;;;18.30;57.50;;;15.25;100.00;99109.13;528147;28;1045;-77
2023/01/09 07:19:43;;;;;;;2.90;1.00;;;18.40;57.30;;;15.26;100.00;99109.00;528240;28;1032;-75
2023/01/09 07:19:59;;;;;;;7.65;1.13;;;18.40;57.10;;;15.27;100.00;99109.84;527864;28;1041;-75
2023/01/09 07:20:16;;;;;;;10.07;1.40;;;18.40;57.00;;;15.26;100.00;99111.63;527928;28;1047;-77
2023/01/09 07:20:33;;;;;;;5.32;1.38;;;18.50;56.90;;;15.27;100.00;99117.72;528107;28;1248;-76
2023/01/09 07:20:51;;;;;;;4.40;1.25;;;18.60;56.70;;;15.28;100.00;99109.72;528339;28;952;-76
2023/01/09 07:21:07;;;;;;;4.05;1.20;;;18.60;56.60;;;15.29;100.00;99110.53;528290;28;912;-75
2023/01/09 07:21:23;;;;;;;4.30;1.08;;;18.60;56.50;;;15.30;100.00;99112.19;528198;28;1052;-77
2023/01/09 07:21:39;;;;;;;4.80;1.25;;;18.70;56.30;;;15.27;100.00;99115.94;528277;28;1030;-76
2023/01/09 07:21:56;;;;;;;2.42;1.20;;;18.70;56.20;;;15.25;100.00;99112.59;527954;28;1060;-77
2023/01/09 07:22:13;;;;;;;2.85;1.00;;;18.80;56.00;;;15.23;100.00;99119.81;528273;28;1096;-77
2023/01/09 07:22:29;;;;;;;3.78;1.00;;;18.80;55.90;;;15.24;100.00;99112.75;528208;28;1191;-77
2023/01/09 07:22:45;;;;;;;4.80;1.20;;;18.80;55.70;;;15.24;100.00;99110.97;528242;28;961;-77
2023/01/09 07:23:02;;;;;;;3.70;1.27;;;18.80;55.60;;;15.26;100.00;99126.59;528295;28;973;-78
2023/01/09 07:23:19;;;;;;;2.65;1.02;;;18.90;55.60;;;15.26;100.00;99121.34;528319;28;1049;-78
2023/01/09 07:23:35;;;;;;;3.90;1.10;;;18.90;55.50;;;15.27;100.00;99118.56;528283;28;1013;-76
2023/01/09 07:23:51;;;;;;;5.28;1.20;;;18.90;55.40;;;15.26;100.00;99123.97;528293;28;1097;-78
2023/01/09 07:24:07;;;;;;;3.72;1.10;;;19.00;55.30;;;15.28;100.00;99122.00;528041;28;935;-76
2023/01/09 07:24:24;;;;;;;4.70;1.17;;;19.00;55.20;;;15.27;100.00;99121.19;528194;28;1012;-77
2023/01/09 07:24:43;;;;;;;10.32;1.55;;;19.10;55.10;;;15.26;100.00;99123.97;528329;28;1056;-77
2023/01/09 07:24:59;;;;;;;13.52;1.92;;;19.00;55.00;;;15.31;100.00;99124.38;528247;28;1059;-77
2023/01/09 07:25:15;;;;;;;9.27;1.60;;;19.10;54.90;;;15.33;100.00;99119.81;528279;28;965;-77
2023/01/09 07:25:32;;;;;;;5.00;1.30;;;19.20;54.90;;;15.34;100.00;99124.09;528475;28;1119;-78
2023/01/09 07:25:51;;;;;;;5.95;1.25;;;19.20;54.90;;;15.34;100.00;99124.09;528124;28;1976;-77
2023/01/09 07:26:08;;;;;;;5.25;1.17;;;19.20;54.90;;;15.34;100.00;99129.34;527986;28;993;-77
2023/01/09 07:26:24;;;;;;;3.58;1.20;;;19.20;54.70;;;15.33;100.00;99125.06;528224;28;1358;-76
2023/01/09 07:26:41;;;;;;;4.63;1.20;;;19.30;54.60;;;15.32;100.00;99126.03;528308;28;934;-76
2023/01/09 07:26:57;;;;;;;4.68;1.10;;;19.30;54.60;;;15.30;100.00;99122.72;528224;28;1032;-76
2023/01/09 07:27:13;;;;;;;4.50;1.20;;;19.30;54.50;;;15.29;100.00;99128.91;528194;28;995;-77
2023/01/09 07:27:29;;;;;;;5.43;1.40;;;19.30;54.40;;;15.29;100.00;99128.91;528232;28;1147;-79
2023/01/09 07:27:47;;;;;;;6.30;1.30;;;19.30;54.30;;;15.30;100.00;99128.78;528325;28;1010;-77
2023/01/09 07:28:04;;;;;;;6.15;1.40;;;19.40;54.20;;;15.30;100.00;99130.59;528247;28;1155;-78
2023/01/09 07:28:20;;;;;;;4.07;1.17;;;19.40;54.20;;;15.30;100.00;99122.72;527771;28;1229;-77
2023/01/09 07:28:36;;;;;;;9.98;1.48;;;19.40;54.10;;;15.29;100.00;99131.53;528190;28;902;-77
2023/01/09 07:28:53;;;;;;;10.65;1.50;;;19.50;54.00;;;15.28;100.00;99135.16;528291;28;1831;-77
2023/01/09 07:29:10;;;;;;;6.50;1.45;;;19.50;54.00;;;15.26;100.00;99132.66;528289;28;1010;-78
2023/01/09 07:29:26;;;;;;;9.25;2.10;;;19.50;53.90;;;15.26;100.00;99139.72;528158;28;1013;-78
2023/01/09 07:29:42;;;;;;;5.75;1.73;;;19.50;53.90;;;15.25;100.00;99124.91;528170;28;1362;-78
2023/01/09 07:29:58;;;;;;;4.15;1.20;;;19.60;53.80;;;15.26;100.00;99137.09;496012;28;13072;-78
2023/01/09 07:30:16;;;;;;;6.10;1.20;;;19.60;53.70;;;15.24;100.00;99134.59;525529;28;968;-79
2023/01/09 07:30:33;;;;;;;5.45;1.25;;;19.60;53.60;;;15.25;100.00;99140.66;523821;28;1286;-75
2023/01/09 07:30:49;;;;;;;5.70;1.27;;;19.70;53.60;;;15.26;100.00;99143.16;524060;28;991;-78
2023/01/09 07:31:06;;;;;;;7.50;1.33;;;19.70;53.50;;;15.29;100.00;99132.38;524067;28;986;-76
2023/01/09 07:31:22;;;;;;;8.02;1.40;;;19.70;53.40;;;15.32;100.00;99142.63;523995;28;950;-78
2023/01/09 07:31:39;;;;;;;6.70;1.35;;;19.70;53.40;;;15.34;100.00;99131.13;523967;28;1386;-76
2023/01/09 07:31:55;;;;;;;10.73;1.50;;;19.70;53.40;;;15.31;100.00;99138.34;523986;28;1008;-76
2023/01/09 07:32:11;;;;;;;13.77;1.55;;;19.80;53.30;;;15.32;100.00;99133.91;524057;28;1081;-75
2023/01/09 07:32:27;;;;;;;8.32;1.40;;;19.80;53.30;;;15.31;100.00;99140.13;523634;28;973;-76
2023/01/09 07:32:44;;;;;;;8.15;1.63;;;19.80;53.20;;;15.31;100.00;99134.88;524025;28;1046;-76
2023/01/09 07:33:01;;;;;;;8.45;1.60;;;19.80;53.20;;;15.31;100.00;99140.13;524023;28;897;-76
2023/01/09 07:33:17;;;;;;;6.55;1.40;;;19.80;53.10;;;15.29;100.00;99139.44;524000;28;917;-76
2023/01/09 07:33:33;;;;;;;6.53;1.38;;;19.80;53.00;;;15.28;100.00;99137.78;524122;28;1240;-79
2023/01/09 07:33:50;;;;;;;5.20;1.23;;;19.80;52.90;;;15.29;100.00;99142.06;524263;28;1025;-79
2023/01/09 07:34:06;;;;;;;6.10;1.40;;;19.90;52.80;;;15.27;100.00;99139.59;524152;28;1149;-80
2023/01/09 07:34:23;;;;;;;5.28;1.17;;;19.90;52.80;;;15.28;100.00;99150.91;523702;28;1175;-78
2023/01/09 07:34:39;;;;;;;3.67;1.20;;;19.90;52.70;;;15.29;100.00;99147.31;524122;28;1040;-78
2023/01/09 07:34:55;;;;;;;15.98;1.60;;;19.90;52.60;;;15.29;100.00;99147.31;524228;28;1028;-76
2023/01/09 07:35:11;;;;;;;16.88;1.35;;;19.90;52.60;;;15.31;100.00;99140.13;524223;28;1033;-77
2023/01/09 07:35:28;;;;;;;8.07;1.25;;;19.90;52.60;;;15.32;100.00;99147.03;524174;28;1295;-76
2023/01/09 07:35:44;;;;;;;7.57;1.60;;;19.90;52.50;;;15.33;100.00;99146.09;524054;28;1041;-76
2023/01/09 07:36:01;;;;;;;9.50;1.40;;;19.90;52.50;;;15.30;100.00;99139.28;524005;28;918;-77
2023/01/09 07:36:19;;;;;;;10.23;1.20;;;19.90;52.50;;;15.29;100.00;99142.06;524008;28;996;-76
2023/01/09 07:36:36;;;;;;;4.07;1.10;;;19.90;52.40;;;15.29;100.00;99144.69;523760;28;914;-77
2023/01/09 07:36:52;;;;;;;4.83;1.30;;;20.00;52.40;;;15.28;100.00;99135.16;524007;28;1052;-76
2023/01/09 07:37:08;;;;;;;5.47;1.30;;;20.00;52.40;;;15.28;100.00;99148.28;524072;28;913;-76
2023/01/09 07:37:24;;;;;;;4.80;1.40;;;20.00;52.30;;;15.27;100.00;99149.25;524010;28;1017;-76
2023/01/09 07:37:40;;;;;;;3.22;1.30;;;20.00;52.30;;;15.27;100.00;99141.38;523965;28;974;-77
2023/01/09 07:37:57;;;;;;;2.25;1.20;;;20.00;52.30;;;15.26;100.00;99137.09;524127;28;1064;-76
2023/01/09 07:38:13;;;;;;;3.80;1.35;;;20.00;52.20;;;15.25;100.00;99152.03;524005;28;977;-76
2023/01/09 07:38:30;;;;;;;4.22;1.20;;;20.10;52.20;;;15.26;100.00;99147.59;524005;28;1137;-76
2023/01/09 07:38:47;;;;;;;5.00;1.13;;;20.10;52.10;;;15.25;100.00;99140.66;523840;28;1032;-76
2023/01/09 07:39:03;;;;;;;4.18;1.17;;;20.10;52.00;;;15.23;100.00;99153.13;523998;28;922;-76
2023/01/09 07:39:19;;;;;;;3.25;1.00;;;20.10;52.00;;;15.22;100.00;99147.03;523973;28;942;-75
2023/01/09 07:39:37;;;;;;;3.58;1.20;;;20.10;52.00;;;15.22;100.00;99140.97;523950;28;1048;-75
2023/01/09 07:39:53;;;;;;;3.65;1.20;;;20.10;51.90;;;15.21;100.00;99155.06;523970;28;933;-75
2023/01/09 07:40:11;;;;;;;4.22;1.17;;;20.10;51.80;;;15.21;100.00;99144.53;524053;28;1021;-75
2023/01/09 07:40:27;;;;;;;4.65;1.00;;;20.10;51.80;;;15.19;100.00;99142.88;524016;28;1840;-74
2023/01/09 07:40:44;;;;;;;7.88;1.30;;;20.20;51.70;;;15.20;100.00;99143.72;523681;28;1001;-75
2023/01/09 07:41:00;;;;;;;6.47;1.40;;;20.10;51.60;;;15.19;100.00;99144.69;523987;28;1053;-77
2023/01/09 07:41:16;;;;;;;3.38;1.20;;;20.10;51.50;;;15.17;100.00;99155.34;524024;28;1350;-78
2023/01/09 07:41:32;;;;;;;5.68;1.25;;;20.20;51.50;;;15.15;100.00;99149.38;523975;28;997;-77
2023/01/09 07:41:48;;;;;;;5.55;1.30;;;20.20;51.40;;;15.15;100.00;99145.91;523847;28;1653;-77
2023/01/09 07:42:05;;;;;;;3.97;1.33;;;20.10;51.40;;;15.15;100.00;99146.75;523970;28;1014;-78
2023/01/09 07:42:21;;;;;;;4.57;1.40;;;20.20;51.30;;;15.15;100.00;99157.28;524051;28;962;-76
2023/01/09 07:42:37;;;;;;;4.93;1.30;;;20.20;51.30;;;15.17;100.00;99150.09;523972;28;1309;-77
2023/01/09 07:42:53;;;;;;;3.92;1.20;;;20.20;51.30;;;15.17;100.00;99150.09;523763;28;1181;-78
2023/01/09 07:43:10;;;;;;;4.40;1.20;;;20.20;51.30;;;15.17;100.00;99149.25;524065;28;969;-78
2023/01/09 07:43:27;;;;;;;3.38;1.30;;;20.20;51.30;;;15.17;100.00;99154.50;523977;28;997;-76
2023/01/09 07:43:43;;;;;;;3.70;1.23;;;20.20;51.20;;;15.17;100.00;99160.59;523942;28;941;-77
2023/01/09 07:43:59;;;;;;;3.60;1.00;;;20.20;51.20;;;15.17;100.00;99160.59;524062;28;1003;-76
2023/01/09 07:44:15;;;;;;;3.30;1.00;;;20.20;51.20;;;15.16;100.00;99150.22;523964;28;1044;-77
2023/01/09 07:44:33;;;;;;;4.35;1.17;;;20.20;51.10;;;15.15;100.00;99152.00;523972;28;925;-76
2023/01/09 07:44:50;;;;;;;3.35;1.20;;;20.20;51.10;;;15.15;100.00;99157.28;524096;28;990;-76
2023/01/09 07:45:07;;;;;;;2.17;1.20;;;20.20;51.10;;;15.15;100.00;99159.91;523824;28;910;-77
2023/01/09 07:45:24;;;;;;;2.10;1.00;;;20.30;51.00;;;15.15;100.00;99157.28;524019;28;938;-79
2023/01/09 07:45:41;;;;;;;2.92;1.00;;;20.30;51.00;;;15.14;100.00;99153.00;524011;28;914;-78
2023/01/09 07:45:57;;;;;;;3.90;1.17;;;20.30;51.00;;;15.13;100.00;99159.22;523787;28;1906;-78
2023/01/09 07:46:13;;;;;;;3.83;1.30;;;20.30;50.90;;;15.12;100.00;99152.28;524005;28;910;-77
2023/01/09 07:46:29;;;;;;;3.40;1.17;;;20.30;50.90;;;15.14;100.00;99150.38;523995;28;1015;-76
2023/01/09 07:46:46;;;;;;;3.05;1.17;;;20.30;50.80;;;15.15;100.00;99157.28;523987;28;973;-76
2023/01/09 07:47:02;;;;;;;3.95;1.20;;;20.30;50.80;;;15.14;100.00;99160.88;523656;28;976;-77
2023/01/09 07:47:18;;;;;;;4.63;1.20;;;20.30;50.80;;;15.15;100.00;99159.91;523979;28;1145;-77
2023/01/09 07:47:34;;;;;;;8.23;1.50;;;20.30;50.70;;;15.15;100.00;99161.69;523874;28;993;-77
2023/01/09 07:47:51;;;;;;;8.57;1.52;;;20.30;50.70;;;15.14;100.00;99160.03;523971;28;1127;-76
2023/01/09 07:48:08;;;;;;;5.63;1.33;;;20.30;50.70;;;15.14;100.00;99160.88;524211;28;1131;-78
2023/01/09 07:48:24;;;;;;;3.22;1.08;;;20.30;50.70;;;15.15;100.00;99161.69;523910;28;1022;-79
2023/01/09 07:48:40;;;;;;;3.83;1.20;;;20.30;50.70;;;15.13;100.00;99164.47;523927;28;976;-77
2023/01/09 07:48:56;;;;;;;3.83;1.30;;;20.30;50.70;;;15.13;100.00;99161.84;524025;28;973;-78
2023/01/09 07:49:13;;;;;;;3.85;1.20;;;20.30;50.60;;;15.13;100.00;99161.84;523854;28;1020;-77
2023/01/09 07:49:29;;;;;;;3.63;1.27;;;20.30;50.50;;;15.13;100.00;99156.59;524009;28;902;-78
2023/01/09 07:49:45;;;;;;;3.38;1.30;;;20.30;50.50;;;15.13;100.00;99159.22;523976;28;993;-78
2023/01/09 07:50:02;;;;;;;3.85;1.38;;;20.30;50.50;;;15.13;100.00;99166.25;524056;28;1115;-75
2023/01/09 07:50:20;;;;;;;3.20;1.40;;;20.30;50.40;;;15.12;100.00;99162.78;523968;28;973;-75
2023/01/09 07:50:36;;;;;;;2.83;1.23;;;20.30;50.40;;;15.13;100.00;99164.47;523912;28;1054;-76
2023/01/09 07:50:52;;;;;;;2.50;1.10;;;20.40;50.40;;;15.14;100.00;99154.78;523919;28;1026;-76
2023/01/09 07:51:10;;;;;;;3.30;1.20;;;20.30;50.40;;;15.13;100.00;99164.47;523876;28;978;-76
2023/01/09 07:51:27;;;;;;;2.78;1.33;;;20.30;50.40;;;15.14;100.00;99160.03;524025;28;1135;-76
2023/01/09 07:51:43;;;;;;;3.05;1.40;;;20.30;50.40;;;15.14;100.00;99165.28;523901;28;958;-76
2023/01/09 07:52:00;;;;;;;2.92;1.20;;;20.30;50.40;;;15.12;100.00;99161.97;523966;28;1020;-78
2023/01/09 07:52:16;;;;;;;3.63;1.15;;;20.30;50.30;;;15.13;100.00;99158.38;523932;28;1105;-76
2023/01/09 07:52:32;;;;;;;3.28;1.40;;;20.30;50.30;;;15.12;100.00;99162.78;523996;28;950;-76
2023/01/09 07:52:49;;;;;;;4.13;1.40;;;20.30;50.30;;;15.13;100.00;99163.63;524131;28;1090;-79
2023/01/09 07:53:05;;;;;;;4.00;1.20;;;20.30;50.30;;;15.12;100.00;99165.41;523987;28;993;-79
2023/01/09 07:53:21;;;;;;;2.47;1.10;;;20.40;50.30;;;15.12;100.00;99160.16;523893;28;969;-77
2023/01/09 07:53:37;;;;;;;2.95;1.10;;;20.30;50.30;;;15.12;100.00;99162.78;524125;28;1935;-78
2023/01/09 07:53:54;;;;;;;3.50;1.25;;;20.30;50.30;;;15.13;100.00;99172.34;523796;28;996;-76
2023/01/09 07:54:11;;;;;;;4.82;1.45;;;20.40;50.30;;;15.12;100.00;99173.28;523921;28;1128;-77
2023/01/09 07:54:27;;;;;;;6.00;1.40;;;20.30;50.30;;;15.12;100.00;99170.66;524041;28;989;-78
2023/01/09 07:54:44;;;;;;;4.35;1.25;;;20.40;50.20;;;15.13;100.00;99174.97;523929;28;1039;-76
2023/01/09 07:55:02;;;;;;;2.13;1.15;;;20.40;50.20;;;15.15;100.00;99167.78;523995;28;962;-77
2023/01/09 07:55:18;;;;;;;1.50;1.00;;;20.40;50.20;;;15.15;100.00;99167.78;523725;28;1085;-76
2023/01/09 07:55:34;;;;;;;2.40;1.08;;;20.40;50.30;;;15.16;100.00;99168.63;523923;28;1295;-77
2023/01/09 07:55:50;;;;;;;2.30;1.10;;;20.40;50.30;;;15.15;100.00;99165.16;523942;28;980;-76
2023/01/09 07:56:08;;;;;;;2.85;1.13;;;20.40;50.30;;;15.15;100.00;99170.41;523879;28;1084;-79
2023/01/09 07:56:24;;;;;;;3.58;1.30;;;20.40;50.20;;;15.15;100.00;99165.16;523944;28;947;-78
2023/01/09 07:56:40;;;;;;;4.07;1.40;;;20.40;50.20;;;15.15;100.00;99170.41;523987;28;1307;-77
2023/01/09 07:56:56;;;;;;;3.78;1.30;;;20.40;50.20;;;15.13;100.00;99174.97;523927;28;1144;-77
2023/01/09 07:57:13;;;;;;;2.85;1.10;;;20.40;50.20;;;15.13;100.00;99167.09;523856;28;1578;-77
2023/01/09 07:57:30;;;;;;;2.25;1.10;;;20.40;50.10;;;15.14;100.00;99171.38;523746;28;935;-77
2023/01/09 07:57:48;;;;;;;2.25;1.20;;;20.40;50.10;;;15.13;100.00;99169.72;523963;28;1047;-76
2023/01/09 07:58:04;;;;;;;3.72;1.20;;;20.40;50.10;;;15.13;100.00;99174.97;523964;28;1021;-76
2023/01/09 07:58:21;;;;;;;3.00;1.10;;;20.40;50.10;;;15.14;100.00;99171.38;523947;28;914;-79
2023/01/09 07:58:38;;;;;;;1.83;1.10;;;20.40;50.10;;;15.14;100.00;99171.38;523975;28;899;-77
2023/01/09 07:58:54;;;;;;;2.22;1.20;;;20.40;50.10;;;15.13;100.00;99179.41;523927;28;976;-77
2023/01/09 07:59:10;;;;;;;3.10;1.20;;;20.40;50.10;;;15.14;100.00;99160.88;523991;28;949;-77
2023/01/09 07:59:28;;;;;;;2.78;1.08;;;20.40;50.10;;;15.14;100.00;99167.91;523815;28;1061;-77
2023/01/09 07:59:45;;;;;;;2.80;1.17;;;20.40;50.10;;;15.17;100.00;99173.75;523829;28;921;-77
2023/01/09 08:00:05;;;;;;;3.00;1.25;;;20.40;50.10;;;15.17;100.00;99165.84;523914;28;1078;-77
2023/01/09 08:00:21;;;;;;;2.13;1.30;;;20.50;50.00;;;15.17;100.00;99176.38;523904;28;1503;-77
2023/01/09 08:00:38;;;;;;;1.75;1.30;;;20.40;50.00;;;15.18;100.00;99167.50;523976;28;950;-76
2023/01/09 08:00:55;;;;;;;4.00;1.27;;;20.40;50.00;;;15.17;100.00;99181.63;523981;28;1154;-77
2023/01/09 08:01:11;;;;;;;4.47;1.13;;;20.40;50.00;;;15.17;100.00;99176.38;523053;28;1170;-78
2023/01/09 08:01:27;;;;;;;2.70;1.20;;;20.40;50.00;;;15.17;100.00;99180.78;521903;28;992;-77
2023/01/09 08:01:43;;;;;;;2.55;1.20;;;20.40;50.00;;;15.15;100.00;99178.28;521689;28;958;-78
2023/01/09 08:02:01;;;;;;;2.33;1.20;;;20.50;50.10;;;15.15;100.00;99183.53;521894;28;986;-76
2023/01/09 08:02:17;;;;;;;2.10;1.00;;;20.40;50.10;;;15.15;100.00;99167.78;522130;28;1160;-77
2023/01/09 08:02:33;;;;;;;2.53;1.05;;;20.40;50.10;;;15.14;100.00;99179.25;521831;28;978;-78
2023/01/09 08:02:53;;;;;;;2.15;1.10;;;20.40;50.10;;;15.14;100.00;99176.63;521983;28;1029;-77
2023/01/09 08:03:09;;;;;;;1.75;1.15;;;20.40;50.10;;;15.14;100.00;99179.25;523838;28;1335;-77
2023/01/09 08:03:26;;;;;;;2.38;1.00;;;20.40;50.10;;;15.15;100.00;99177.44;523982;28;1010;-77
2023/01/09 08:03:42;;;;;;;3.25;0.90;;;20.40;50.10;;;15.14;100.00;99176.63;523637;28;1008;-77
2023/01/09 08:03:58;;;;;;;3.25;1.00;;;20.40;50.10;;;15.15;100.00;99173.03;523906;28;965;-78
2023/01/09 08:04:14;;;;;;;2.10;1.13;;;20.40;50.10;;;15.15;100.00;99183.53;523999;28;994;-76
2023/01/09 08:04:32;;;;;;;1.90;1.13;;;20.40;50.10;;;15.15;100.00;99173.03;523953;28;966;-77
2023/01/09 08:04:48;;;;;;;1.63;1.00;;;20.40;50.10;;;15.14;100.00;99168.75;523888;28;914;-78
2023/01/09 08:05:07;;;;;;;1.92;1.00;;;20.50;50.10;;;15.15;100.00;99180.06;523992;28;918;-77
2023/01/09 08:05:23;;;;;;;2.72;1.20;;;20.40;50.10;;;15.15;100.00;99177.44;524004;28;989;-78
2023/01/09 08:05:40;;;;;;;2.17;1.30;;;20.40;50.10;;;15.15;100.00;99186.16;524799;28;1230;-78
2023/01/09 08:05:56;;;;;;;2.55;1.40;;;20.40;50.10;;;15.13;100.00;99172.34;526151;28;1024;-78
2023/01/09 08:06:14;;;;;;;1.92;1.10;;;20.40;50.10;;;15.14;100.00;99188.94;525973;28;1976;-77
2023/01/09 08:06:31;;;;;;;3.25;1.05;;;20.40;50.10;;;15.14;100.00;99181.03;525912;28;1045;-77
2023/01/09 08:06:48;;;;;;;3.80;1.20;;;20.40;50.00;;;15.14;100.00;99181.88;526005;28;999;-77
2023/01/09 08:07:04;;;;;;;3.00;1.23;;;20.50;50.10;;;15.13;100.00;99188.13;525984;28;1111;-77
2023/01/09 08:07:20;;;;;;;3.28;1.23;;;20.40;50.00;;;15.14;100.00;99179.25;526103;28;1311;-77
2023/01/09 08:07:36;;;;;;;3.53;1.25;;;20.40;50.00;;;15.14;100.00;99181.88;525951;28;1183;-78
2023/01/09 08:07:52;;;;;;;2.63;1.13;;;20.50;50.00;;;15.13;100.00;99179.41;526102;28;1009;-79
2023/01/09 08:08:09;;;;;;;2.78;1.27;;;20.40;50.00;;;15.15;100.00;99178.28;526080;28;972;-78
2023/01/09 08:08:26;;;;;;;2.80;1.40;;;20.40;50.00;;;15.19;100.00;99191.97;526237;28;1038;-77
2023/01/09 08:08:42;;;;;;;2.53;1.13;;;20.40;49.90;;;15.21;100.00;99191.84;525927;28;1037;-77
2023/01/09 08:08:58;;;;;;;2.30;0.98;;;20.40;50.00;;;15.21;100.00;99189.22;526239;28;1021;-78
2023/01/09 08:09:14;;;;;;;1.73;1.00;;;20.50;50.00;;;15.20;100.00;99183.16;526033;28;974;-77
2023/01/09 08:09:31;;;;;;;1.45;1.00;;;20.50;50.00;;;15.23;100.00;99184.66;526008;28;957;-76
2023/01/09 08:09:48;;;;;;;2.15;1.02;;;20.40;50.00;;;15.30;100.00;99188.41;525991;28;1067;-78
2023/01/09 08:10:05;;;;;;;4.45;1.20;;;20.40;50.00;;;15.33;100.00;99190.78;526036;28;1020;-78
2023/01/09 08:10:21;;;;;;;4.05;1.20;;;20.50;50.00;;;15.33;100.00;99193.41;526046;28;964;-77
2023/01/09 08:10:38;;;;;;;2.33;1.25;;;20.50;50.00;;;15.30;100.00;99191.03;525930;28;1062;-77
2023/01/09 08:10:54;;;;;;;2.20;1.20;;;20.40;50.00;;;15.28;100.00;99193.81;525957;28;990;-77
2023/01/09 08:11:10;;;;;;;2.22;1.00;;;20.50;50.00;;;15.28;100.00;99188.53;526063;28;1115;-77
2023/01/09 08:11:26;;;;;;;2.92;1.10;;;20.40;50.00;;;15.28;100.00;99192.97;525127;28;1139;-76
2023/01/09 08:11:42;;;;;;;2.13;1.05;;;20.50;50.00;;;15.29;100.00;99199.88;525126;28;2886;-78
2023/01/09 08:12:00;;;;;;;2.50;1.13;;;20.40;50.10;;;15.30;100.00;99185.78;525873;28;1054;-76
2023/01/09 08:12:16;;;;;;;3.22;1.20;;;20.40;50.10;;;15.31;100.00;99195.31;524529;28;2743;-77
2023/01/09 08:12:32;;;;;;;2.60;1.20;;;20.50;50.10;;;15.30;100.00;99193.66;524934;28;2863;-77
2023/01/09 08:12:48;;;;;;;2.88;1.30;;;20.50;50.20;;;15.31;100.00;99187.44;524024;28;2444;-78
2023/01/09 08:13:05;;;;;;;2.60;1.15;;;20.50;50.20;;;15.31;100.00;99192.69;524055;28;2792;-76
2023/01/09 08:13:22;;;;;;;2.65;1.20;;;20.40;50.10;;;15.32;100.00;99194.34;525850;28;976;-76
2023/01/09 08:13:38;;;;;;;3.10;1.45;;;20.40;50.10;;;15.32;100.00;99192.56;524746;28;1304;-76
2023/01/09 08:13:54;;;;;;;2.50;1.15;;;20.50;50.10;;;15.35;100.00;99199.34;525792;28;2661;-77
2023/01/09 08:14:10;;;;;;;3.40;1.00;;;20.50;50.20;;;15.36;100.00;99194.91;525794;28;902;-78
2023/01/09 08:14:27;;;;;;;3.15;1.10;;;20.50;50.20;;;15.35;100.00;99196.72;526006;28;942;-78
2023/01/09 08:14:43;;;;;;;1.98;1.20;;;20.40;50.20;;;15.35;100.00;99194.09;525645;28;1225;-78
2023/01/09 08:15:00;;;;;;;3.20;1.30;;;20.50;50.30;;;15.35;100.00;99194.09;526068;28;922;-77
2023/01/09 08:15:16;;;;;;;3.17;1.20;;;20.50;50.30;;;15.37;100.00;99186.06;525954;28;1044;-78
2023/01/09 08:15:34;;;;;;;2.13;1.00;;;20.50;50.30;;;15.38;100.00;99193.81;525987;28;977;-78
2023/01/09 08:15:50;;;;;;;3.65;1.15;;;20.50;50.30;;;15.41;100.00;99198.81;526034;28;1013;-78
2023/01/09 08:16:07;;;;;;;3.13;1.30;;;20.50;50.30;;;15.44;100.00;99193.25;525895;28;1205;-78
2023/01/09 08:16:23;;;;;;;2.03;1.30;;;20.50;50.30;;;15.48;100.00;99198.25;525970;28;1191;-77